Time;durP1;ratioP1;P1;durP2;ratioP2;P2;SDS_P1;SDS_P2;PMS_P1;PMS_P2;Temp;Humidity;BMP_temperature;BMP_pressure;BME280_temperature;BME280_humidity;BME280_pressure;Samples;Min_cycle;Max_cycle;Signal;HPM_P1;HPM_P2
2023/07/18 00:00:10;;;;;;;4.82;2.20;;;21.30;79.90;;;;;;5054736;28;20049;-85
2023/07/18 00:02:36;;;;;;;4.53;2.10;;;21.20;80.00;;;;;;5053570;28;20457;-84
2023/07/18 00:05:01;;;;;;;4.90;2.20;;;21.30;79.90;;;;;;5053911;28;20100;-84
2023/07/18 00:07:27;;;;;;;5.35;2.70;;;21.30;79.80;;;;;;5058785;28;20035;-85
2023/07/18 00:09:52;;;;;;;5.38;2.17;;;21.30;79.80;;;;;;5058034;28;20091;-86
2023/07/18 00:12:17;;;;;;;4.38;1.95;;;21.30;79.70;;;;;;5057644;28;20124;-84
2023/07/18 00:14:43;;;;;;;3.90;2.08;;;21.30;79.60;;;;;;5057553;28;20580;-84
2023/07/18 00:17:09;;;;;;;5.93;1.95;;;21.30;79.60;;;;;;5057332;28;20033;-86
2023/07/18 00:19:34;;;;;;;4.32;2.10;;;21.30;80.20;;;;;;5059122;28;20029;-84
2023/07/18 00:22:00;;;;;;;5.28;2.50;;;21.30;79.60;;;;;;5058809;28;20052;-84
2023/07/18 00:24:25;;;;;;;4.75;2.40;;;21.30;79.60;;;;;;5057655;28;20024;-85
2023/07/18 00:26:51;;;;;;;6.00;2.60;;;21.30;79.60;;;;;;5055843;28;20024;-84
2023/07/18 00:29:17;;;;;;;4.60;2.42;;;21.30;79.50;;;;;;5058159;28;20449;-84
2023/07/18 00:31:42;;;;;;;5.75;2.70;;;21.30;79.70;;;;;;5058825;28;20100;-85
2023/07/18 00:34:08;;;;;;;5.05;2.28;;;21.30;79.80;;;;;;5057187;28;20021;-85
2023/07/18 00:36:33;;;;;;;6.20;2.30;;;21.20;79.80;;;;;;5057188;28;20017;-84
2023/07/18 00:38:59;;;;;;;4.43;2.38;;;21.20;79.80;;;;;;5055281;28;20021;-85
2023/07/18 00:41:24;;;;;;;5.10;2.30;;;21.20;79.80;;;;;;5056665;28;20021;-84
2023/07/18 00:43:50;;;;;;;5.57;2.58;;;21.20;79.80;;;;;;5057802;28;20025;-84
2023/07/18 00:46:16;;;;;;;4.50;2.30;;;21.20;79.80;;;;;;5057224;28;20027;-84
2023/07/18 00:48:42;;;;;;;5.18;2.60;;;21.10;79.80;;;;;;5057869;28;20025;-86
2023/07/18 00:51:07;;;;;;;5.35;2.60;;;21.10;79.70;;;;;;5057712;28;20421;-84
2023/07/18 00:53:35;;;;;;;5.93;2.47;;;21.10;79.70;;;;;;5057200;28;20149;-84
2023/07/18 00:56:02;;;;;;;4.75;2.58;;;21.10;79.70;;;;;;5057303;28;20106;-86
2023/07/18 00:58:28;;;;;;;5.40;2.38;;;21.10;79.70;;;;;;5055663;28;20489;-84
2023/07/18 01:00:54;;;;;;;5.95;2.45;;;21.10;79.80;;;;;;5056946;28;20063;-84
2023/07/18 01:03:20;;;;;;;5.97;2.70;;;21.10;79.70;;;;;;5055657;28;20021;-84
2023/07/18 01:05:46;;;;;;;4.95;2.13;;;21.10;79.70;;;;;;5055189;28;20028;-84
2023/07/18 01:08:11;;;;;;;5.82;2.40;;;21.10;79.70;;;;;;5056211;28;20024;-86
2023/07/18 01:10:38;;;;;;;5.60;2.50;;;21.10;79.70;;;;;;5057026;28;20028;-84
2023/07/18 01:13:04;;;;;;;5.20;2.47;;;21.10;79.70;;;;;;5055259;28;20056;-84
2023/07/18 01:15:32;;;;;;;5.50;2.53;;;21.10;79.70;;;;;;5055664;28;20048;-84
2023/07/18 01:17:58;;;;;;;5.30;2.25;;;21.10;79.60;;;;;;5055081;28;20025;-84
2023/07/18 01:20:27;;;;;;;6.40;2.67;;;21.10;79.60;;;;;;5057030;28;20025;-84
2023/07/18 01:22:58;;;;;;;5.70;2.40;;;21.10;79.40;;;;;;5055345;28;20029;-84
2023/07/18 01:25:24;;;;;;;;;;;21.10;79.40;;;;;;5057777;28;20029;-84
2023/07/18 01:27:51;;;;;;;4.80;2.30;;;21.10;79.50;;;;;;5054732;28;19912;-84
2023/07/18 01:30:22;;;;;;;6.25;2.42;;;21.10;79.60;;;;;;5055409;28;20052;-85
2023/07/18 01:32:48;;;;;;;5.47;2.37;;;21.10;79.60;;;;;;5055207;28;20052;-84
2023/07/18 01:35:15;;;;;;;5.78;2.78;;;21.20;79.60;;;;;;5056838;28;20581;-84
2023/07/18 01:37:44;;;;;;;6.00;2.55;;;21.20;79.60;;;;;;5055509;28;20126;-84
2023/07/18 01:40:14;;;;;;;5.32;2.30;;;21.20;79.50;;;;;;5054503;28;20108;-85
2023/07/18 01:42:40;;;;;;;4.35;2.20;;;21.20;79.30;;;;;;5054613;28;20053;-85
2023/07/18 01:45:06;;;;;;;4.82;2.40;;;21.20;79.40;;;;;;5055849;28;20456;-84
2023/07/18 01:47:32;;;;;;;5.35;2.50;;;21.20;79.30;;;;;;5054237;28;20025;-83
2023/07/18 01:49:59;;;;;;;5.55;2.53;;;21.20;79.30;;;;;;5056205;28;20036;-86
2023/07/18 01:52:27;;;;;;;4.82;2.70;;;21.20;79.20;;;;;;5059119;28;20025;-86
2023/07/18 01:54:54;;;;;;;5.93;2.70;;;21.20;79.30;;;;;;5058104;28;20076;-86
2023/07/18 01:57:19;;;;;;;6.68;2.38;;;21.20;79.20;;;;;;5059627;28;20520;-86
2023/07/18 01:59:45;;;;;;;4.53;2.60;;;21.20;79.30;;;;;;5057905;28;20029;-85
2023/07/18 02:02:10;;;;;;;6.25;2.88;;;21.10;79.30;;;;;;5059134;28;20077;-86
2023/07/18 02:04:36;;;;;;;5.40;2.83;;;21.10;79.40;;;;;;5057605;28;20060;-86
2023/07/18 02:07:02;;;;;;;4.82;2.55;;;21.10;79.50;;;;;;5058279;28;20086;-86
2023/07/18 02:09:28;;;;;;;5.75;2.70;;;21.10;79.50;;;;;;5052042;28;20060;-85
2023/07/18 02:11:54;;;;;;;5.55;2.35;;;21.10;79.50;;;;;;5048291;28;20025;-86
2023/07/18 02:14:20;;;;;;;5.10;2.55;;;21.10;79.50;;;;;;5050736;28;20044;-86
2023/07/18 02:16:46;;;;;;;5.38;2.58;;;21.10;79.50;;;;;;5057557;28;20033;-86
2023/07/18 02:19:12;;;;;;;5.20;2.60;;;21.10;79.50;;;;;;5057470;28;20029;-85
2023/07/18 02:21:38;;;;;;;5.82;3.20;;;21.10;79.60;;;;;;5057739;28;20021;-86
2023/07/18 02:24:04;;;;;;;6.63;2.80;;;21.10;79.50;;;;;;5057551;28;20025;-86
2023/07/18 02:26:29;;;;;;;5.57;2.58;;;21.00;79.50;;;;;;5057195;28;20025;-86
2023/07/18 02:28:55;;;;;;;6.32;2.70;;;21.00;79.50;;;;;;5056546;28;20028;-86
2023/07/18 02:31:21;;;;;;;5.43;2.60;;;21.00;79.50;;;;;;5056396;28;20025;-85
2023/07/18 02:33:47;;;;;;;5.10;2.40;;;21.00;79.50;;;;;;5058192;28;20112;-84
2023/07/18 02:36:12;;;;;;;6.82;2.67;;;21.00;79.50;;;;;;5057687;28;20037;-85
2023/07/18 02:38:38;;;;;;;6.22;2.75;;;21.00;79.50;;;;;;5055636;28;20098;-86
2023/07/18 02:41:04;;;;;;;5.57;2.58;;;21.00;79.50;;;;;;5055763;28;20137;-85
2023/07/18 02:43:29;;;;;;;5.18;2.40;;;21.00;79.50;;;;;;5056959;28;20029;-86
2023/07/18 02:45:55;;;;;;;5.03;2.40;;;21.00;79.50;;;;;;5055359;28;20025;-86
2023/07/18 02:48:20;;;;;;;5.25;2.78;;;20.90;79.40;;;;;;5055490;28;20048;-85
2023/07/18 02:50:48;;;;;;;6.60;2.72;;;21.00;79.50;;;;;;5056519;28;20507;-85
2023/07/18 02:53:13;;;;;;;5.90;2.83;;;21.10;79.30;;;;;;5055488;28;20037;-86
2023/07/18 02:55:39;;;;;;;4.72;2.20;;;21.00;79.30;;;;;;5054969;28;20120;-87
2023/07/18 02:58:05;;;;;;;5.15;2.38;;;21.00;79.30;;;;;;5054368;28;20405;-85
2023/07/18 03:00:33;;;;;;;5.22;2.60;;;21.10;79.40;;;;;;5054878;28;20025;-84
2023/07/18 03:02:59;;;;;;;6.03;2.35;;;21.10;79.40;;;;;;5054312;28;20115;-84
2023/07/18 03:05:27;;;;;;;5.55;2.80;;;21.10;79.20;;;;;;5055695;28;20029;-85
2023/07/18 03:07:54;;;;;;;5.18;2.40;;;21.10;79.20;;;;;;5053626;28;20028;-85
2023/07/18 03:10:20;;;;;;;5.50;2.40;;;21.10;79.10;;;;;;5054144;28;20080;-85
2023/07/18 03:12:46;;;;;;;4.38;2.20;;;21.10;79.00;;;;;;5053796;28;20032;-86
2023/07/18 03:15:13;;;;;;;6.63;2.80;;;21.10;79.00;;;;;;5053961;28;20389;-85
2023/07/18 03:17:39;;;;;;;6.18;2.53;;;21.10;78.90;;;;;;5053176;28;20036;-85
2023/07/18 03:20:16;;;;;;;5.72;2.38;;;21.10;79.00;;;;;;5053442;28;20025;-87
2023/07/18 03:22:44;;;;;;;6.25;2.58;;;21.10;78.90;;;;;;5053691;28;20392;-88
2023/07/18 03:25:10;;;;;;;5.88;2.50;;;21.10;78.90;;;;;;5049473;28;20021;-86
2023/07/18 03:27:35;;;;;;;5.45;2.60;;;21.10;78.90;;;;;;5053388;28;20075;-86
2023/07/18 03:30:01;;;;;;;6.30;3.30;;;21.10;78.90;;;;;;5045840;28;20662;-85
2023/07/18 03:32:26;;;;;;;4.97;2.58;;;21.10;79.00;;;;;;5029888;28;20569;-86
2023/07/18 03:34:52;;;;;;;4.15;2.20;;;21.10;79.20;;;;;;5038725;28;20033;-87
2023/07/18 03:37:23;;;;;;;4.20;2.28;;;21.10;79.30;;;;;;5051617;28;20414;-87
2023/07/18 03:39:49;;;;;;;5.15;2.50;;;21.00;79.20;;;;;;5049111;28;20035;-86
2023/07/18 03:42:14;;;;;;;5.00;2.40;;;21.00;79.10;;;;;;5048892;28;20115;-85
2023/07/18 03:44:41;;;;;;;5.80;2.60;;;21.00;79.20;;;;;;5048905;28;20029;-87
2023/07/18 03:47:06;;;;;;;6.18;2.60;;;21.00;79.20;;;;;;5048160;28;20025;-87
2023/07/18 03:49:32;;;;;;;4.93;2.40;;;21.10;79.30;;;;;;5048962;28;20037;-87
2023/07/18 03:52:01;;;;;;;5.95;2.50;;;21.00;79.30;;;;;;5048383;28;20037;-87
2023/07/18 03:54:26;;;;;;;5.47;2.47;;;20.90;79.20;;;;;;5047336;28;20400;-85
2023/07/18 03:56:52;;;;;;;5.97;2.70;;;20.90;79.20;;;;;;5047978;28;20033;-84
2023/07/18 03:59:18;;;;;;;4.68;2.33;;;21.00;79.20;;;;;;5052910;28;20029;-84
2023/07/18 04:01:46;;;;;;;5.45;2.60;;;20.90;79.10;;;;;;5047819;28;20481;-82
2023/07/18 04:04:13;;;;;;;5.30;2.33;;;20.90;79.20;;;;;;5049099;28;20028;-86
2023/07/18 04:06:39;;;;;;;7.15;2.65;;;20.90;79.20;;;;;;5048911;28;20045;-85
2023/07/18 04:09:05;;;;;;;6.00;2.50;;;21.00;79.20;;;;;;5046529;28;20120;-82
2023/07/18 04:11:31;;;;;;;6.68;2.70;;;20.90;79.20;;;;;;5046418;28;20017;-82
2023/07/18 04:13:57;;;;;;;6.25;2.60;;;20.90;79.20;;;;;;5039937;28;20025;-83
2023/07/18 04:16:22;;;;;;;6.75;2.55;;;20.90;79.10;;;;;;5047483;28;20507;-82
2023/07/18 04:18:48;;;;;;;4.60;2.30;;;20.90;79.10;;;;;;5048571;28;20481;-83
2023/07/18 04:21:13;;;;;;;5.03;2.60;;;20.90;79.10;;;;;;5048276;28;20033;-84
2023/07/18 04:23:39;;;;;;;5.32;2.45;;;20.90;78.80;;;;;;5047095;28;20059;-83
2023/07/18 04:26:04;;;;;;;5.55;2.50;;;20.90;79.00;;;;;;5042130;28;20033;-83
2023/07/18 04:28:34;;;;;;;5.82;3.13;;;21.00;78.80;;;;;;5038692;28;20017;-84
2023/07/18 04:31:00;;;;;;;7.40;3.25;;;21.00;78.70;;;;;;5046283;28;20036;-84
2023/07/18 04:33:25;;;;;;;7.03;3.22;;;21.10;78.60;;;;;;5046484;28;20032;-82
2023/07/18 04:35:51;;;;;;;7.78;3.40;;;20.90;78.40;;;;;;5046329;28;20033;-83
2023/07/18 04:38:17;;;;;;;8.27;3.20;;;21.00;78.10;;;;;;5046412;28;20443;-83
2023/07/18 04:40:42;;;;;;;8.80;3.00;;;21.00;78.10;;;;;;5046460;28;20071;-84
2023/07/18 04:43:08;;;;;;;7.50;3.13;;;21.00;78.10;;;;;;5046232;28;20503;-83
2023/07/18 04:45:41;;;;;;;7.25;3.13;;;21.00;78.00;;;;;;5047639;28;20393;-82
2023/07/18 04:48:06;;;;;;;9.57;3.30;;;21.10;78.00;;;;;;5045919;28;20028;-83
2023/07/18 04:50:32;;;;;;;6.93;3.42;;;21.10;77.90;;;;;;5046831;28;20025;-83
2023/07/18 04:52:57;;;;;;;9.75;3.38;;;21.00;77.90;;;;;;5050913;28;20025;-83
2023/07/18 04:55:23;;;;;;;7.93;3.40;;;21.10;77.90;;;;;;5050535;28;20024;-82
2023/07/18 04:57:49;;;;;;;7.63;3.15;;;21.00;77.90;;;;;;5049689;28;20507;-82
2023/07/18 05:00:15;;;;;;;9.75;3.60;;;21.00;77.90;;;;;;5051306;28;20025;-82
2023/07/18 05:02:40;;;;;;;8.80;3.35;;;21.00;78.00;;;;;;5049379;28;20058;-80
2023/07/18 05:05:06;;;;;;;6.35;3.42;;;21.00;78.10;;;;;;5050061;28;20089;-82
2023/07/18 05:07:32;;;;;;;8.70;3.63;;;20.90;78.10;;;;;;5050234;28;20571;-81
2023/07/18 05:10:00;;;;;;;6.63;3.13;;;20.90;78.10;;;;;;5052147;28;20033;-83
2023/07/18 05:12:35;;;;;;;7.60;3.35;;;20.90;78.00;;;;;;5053583;28;20072;-83
2023/07/18 05:15:29;;;;;;;7.32;3.70;;;20.90;78.00;;;;;;5061204;28;20052;-83
2023/07/18 05:18:13;;;;;;;8.63;3.40;;;21.00;78.30;;;;;;5052593;28;20509;-83
2023/07/18 05:21:26;;;;;;;7.10;2.83;;;20.90;78.20;;;;;;5052249;28;20147;-83
2023/07/18 05:23:57;;;;;;;7.35;2.92;;;21.90;78.80;;;;;;4989615;28;20116;-82
2023/07/18 05:26:31;;;;;;;7.00;3.28;;;20.70;78.10;;;;;;5052711;28;20040;-82
2023/07/18 05:28:57;;;;;;;8.20;3.30;;;20.70;78.10;;;;;;5052691;28;20033;-83
2023/07/18 05:31:22;;;;;;;7.53;2.97;;;21.00;78.30;;;;;;5057793;28;20029;-83
2023/07/18 05:33:48;;;;;;;6.65;2.72;;;20.90;78.30;;;;;;5059669;28;20021;-83
2023/07/18 05:36:16;;;;;;;5.35;2.50;;;20.90;78.40;;;;;;5058938;28;20029;-83
2023/07/18 05:38:42;;;;;;;6.88;2.72;;;20.90;78.40;;;;;;5079423;22;20477;-81
2023/07/18 05:41:08;;;;;;;7.13;2.90;;;20.90;78.50;;;;;;5053563;28;20025;-81
2023/07/18 05:43:33;;;;;;;7.60;2.65;;;20.90;78.50;;;;;;5069996;28;20024;-81
2023/07/18 05:45:59;;;;;;;6.78;3.03;;;20.90;78.60;;;;;;5053396;28;20039;-80
2023/07/18 05:48:25;;;;;;;5.57;2.80;;;20.90;78.60;;;;;;5063275;28;20024;-81
2023/07/18 05:50:50;;;;;;;7.80;3.00;;;20.90;78.70;;;;;;5073317;28;20409;-81
2023/07/18 05:53:16;;;;;;;6.93;2.40;;;20.90;78.70;;;;;;5074696;28;20427;-81
2023/07/18 05:55:41;;;;;;;6.50;2.83;;;21.00;78.90;;;;;;5073202;28;20028;-81
2023/07/18 05:58:07;;;;;;;5.70;2.58;;;21.00;78.60;;;;;;5072979;28;20135;-81
2023/07/18 06:00:32;;;;;;;9.02;2.97;;;21.00;78.50;;;;;;5072912;28;20025;-81
2023/07/18 06:02:58;;;;;;;5.25;2.63;;;21.00;78.60;;;;;;5073755;28;20392;-81
2023/07/18 06:05:23;;;;;;;7.18;2.95;;;21.00;78.50;;;;;;5072279;28;20484;-81
2023/07/18 06:07:49;;;;;;;7.40;2.63;;;21.10;78.50;;;;;;5072683;28;20024;-81
2023/07/18 06:10:14;;;;;;;6.03;2.72;;;21.10;78.50;;;;;;5072909;28;20020;-81
2023/07/18 06:12:40;;;;;;;6.00;2.58;;;21.10;78.40;;;;;;5072892;28;20020;-81
2023/07/18 06:15:06;;;;;;;5.57;2.80;;;21.00;78.30;;;;;;5072798;28;20055;-81
2023/07/18 06:17:35;;;;;;;5.50;2.42;;;21.10;78.40;;;;;;5073699;28;20047;-80
2023/07/18 06:20:02;;;;;;;5.72;2.47;;;21.20;78.40;;;;;;5073678;28;20016;-81
2023/07/18 06:22:27;;;;;;;6.55;2.88;;;21.10;78.30;;;;;;5072493;28;20044;-81
2023/07/18 06:24:53;;;;;;;6.72;2.75;;;21.10;78.30;;;;;;5072518;28;20020;-81
2023/07/18 06:27:18;;;;;;;5.38;2.40;;;21.10;78.40;;;;;;5073676;28;20024;-81
2023/07/18 06:29:44;;;;;;;6.20;2.47;;;21.10;78.50;;;;;;5072453;28;20024;-81
2023/07/18 06:32:10;;;;;;;6.47;2.47;;;21.10;78.50;;;;;;5073536;28;20021;-81
2023/07/18 06:34:40;;;;;;;4.05;2.10;;;21.10;78.60;;;;;;5072299;28;20028;-81
2023/07/18 06:37:08;;;;;;;4.40;2.30;;;21.10;78.70;;;;;;5073480;28;20472;-81
2023/07/18 06:39:34;;;;;;;5.82;2.55;;;21.10;78.70;;;;;;5072191;28;20034;-81
2023/07/18 06:41:59;;;;;;;5.97;2.45;;;21.10;78.80;;;;;;5071956;28;20021;-81
2023/07/18 06:44:25;;;;;;;4.95;2.42;;;21.00;78.80;;;;;;5073542;28;20016;-81
2023/07/18 06:46:51;;;;;;;4.68;2.22;;;21.10;78.90;;;;;;5072199;28;20108;-81
2023/07/18 06:49:18;;;;;;;5.38;2.60;;;21.10;78.90;;;;;;5072073;28;20028;-80
2023/07/18 06:51:44;;;;;;;4.43;2.25;;;21.10;78.90;;;;;;5071928;28;20057;-81
2023/07/18 06:54:09;;;;;;;4.20;1.95;;;21.10;78.90;;;;;;5071966;28;20465;-80
2023/07/18 06:56:36;;;;;;;5.38;2.60;;;21.10;78.90;;;;;;5073102;28;20025;-80
2023/07/18 06:59:02;;;;;;;4.03;2.22;;;21.10;78.90;;;;;;5073110;28;20473;-81
2023/07/18 07:01:28;;;;;;;4.97;2.20;;;21.10;78.90;;;;;;5071780;28;20066;-81
2023/07/18 07:03:55;;;;;;;3.90;2.10;;;21.10;78.90;;;;;;5071292;28;20021;-81
2023/07/18 07:06:23;;;;;;;5.10;2.20;;;21.10;78.90;;;;;;5072857;28;20089;-81
2023/07/18 07:08:50;;;;;;;4.55;2.30;;;21.10;78.90;;;;;;5071815;28;20073;-80
2023/07/18 07:11:15;;;;;;;4.25;2.15;;;21.10;78.90;;;;;;5073067;28;20024;-81
2023/07/18 07:13:41;;;;;;;4.82;2.22;;;21.20;78.90;;;;;;5072861;28;20587;-81
2023/07/18 07:16:06;;;;;;;4.47;2.17;;;21.20;79.00;;;;;;5071583;28;20130;-78
2023/07/18 07:18:32;;;;;;;4.53;2.28;;;21.20;79.00;;;;;;5072842;28;20108;-79
2023/07/18 07:20:58;;;;;;;4.80;1.90;;;21.20;78.90;;;;;;5071411;28;20027;-81
2023/07/18 07:23:23;;;;;;;5.28;2.42;;;21.20;78.90;;;;;;5071594;28;20020;-81
2023/07/18 07:25:49;;;;;;;3.35;1.83;;;21.20;78.90;;;;;;5071445;28;20024;-81
2023/07/18 07:28:14;;;;;;;5.03;2.28;;;21.30;78.90;;;;;;5071227;28;20031;-81
2023/07/18 07:30:40;;;;;;;5.20;2.05;;;21.30;78.70;;;;;;5071486;28;20476;-81
2023/07/18 07:33:05;;;;;;;4.70;2.13;;;21.30;78.60;;;;;;5071245;28;20066;-81
2023/07/18 07:35:32;;;;;;;5.35;2.30;;;21.30;79.00;;;;;;5072655;28;20032;-81
2023/07/18 07:37:58;;;;;;;4.85;2.13;;;21.40;78.40;;;;;;5072066;28;20191;-81
2023/07/18 07:40:24;;;;;;;4.53;2.08;;;21.40;78.30;;;;;;5072527;28;20480;-81
2023/07/18 07:42:50;;;;;;;4.18;1.85;;;21.30;78.20;;;;;;5071381;28;20523;-81
2023/07/18 07:45:16;;;;;;;5.10;2.22;;;21.40;78.30;;;;;;5071443;28;20032;-81
2023/07/18 07:47:42;;;;;;;3.78;1.95;;;21.50;78.20;;;;;;5072011;28;20392;-80
2023/07/18 07:50:08;;;;;;;4.32;2.08;;;21.50;78.20;;;;;;5072318;28;20025;-81
2023/07/18 07:52:35;;;;;;;3.95;2.05;;;21.50;78.10;;;;;;5072217;28;20028;-81
2023/07/18 07:55:01;;;;;;;4.70;1.95;;;21.50;78.10;;;;;;5072166;28;20029;-81
2023/07/18 07:57:27;;;;;;;4.10;2.10;;;21.50;78.10;;;;;;5070860;28;20020;-81
2023/07/18 07:59:53;;;;;;;3.95;1.90;;;21.50;78.10;;;;;;5070922;28;20031;-81
2023/07/18 08:02:19;;;;;;;4.40;1.98;;;21.50;78.30;;;;;;5070628;28;20541;-81
2023/07/18 08:04:45;;;;;;;4.80;2.40;;;21.50;78.30;;;;;;5070864;28;20409;-81
2023/07/18 08:07:11;;;;;;;4.63;2.17;;;21.50;78.40;;;;;;5071955;28;20020;-81
2023/07/18 08:09:37;;;;;;;4.05;1.80;;;21.50;78.40;;;;;;5070875;28;20029;-81
2023/07/18 08:12:06;;;;;;;4.22;2.17;;;21.50;78.40;;;;;;5072013;28;20076;-81
2023/07/18 08:14:33;;;;;;;3.63;1.80;;;21.50;78.50;;;;;;5072095;28;20024;-81
2023/07/18 08:16:59;;;;;;;4.57;2.00;;;21.50;78.50;;;;;;5070380;28;20064;-81
2023/07/18 08:19:26;;;;;;;5.13;1.92;;;21.50;78.50;;;;;;5072029;28;20024;-81
2023/07/18 08:21:51;;;;;;;4.35;1.85;;;21.50;78.50;;;;;;5070693;28;20111;-81
2023/07/18 08:24:17;;;;;;;4.07;1.90;;;21.50;78.40;;;;;;5070947;28;20144;-81
2023/07/18 08:26:43;;;;;;;4.03;1.98;;;21.50;78.40;;;;;;5072281;28;20480;-80
2023/07/18 08:29:08;;;;;;;3.72;1.95;;;21.60;78.50;;;;;;5074696;28;20055;-81
2023/07/18 08:31:34;;;;;;;4.05;2.03;;;21.60;78.50;;;;;;5074699;28;20056;-81
2023/07/18 08:33:59;;;;;;;3.83;1.88;;;21.60;78.40;;;;;;5075964;28;20020;-81
2023/07/18 08:36:25;;;;;;;3.97;1.80;;;21.60;78.40;;;;;;5075802;28;20223;-81
2023/07/18 08:38:51;;;;;;;4.18;1.80;;;21.60;78.30;;;;;;5075339;28;20028;-80
2023/07/18 08:41:20;;;;;;;3.80;1.90;;;21.60;78.30;;;;;;5074374;28;20025;-81
2023/07/18 08:43:47;;;;;;;4.25;2.00;;;21.70;78.30;;;;;;5075849;28;20020;-80
2023/07/18 08:46:17;;;;;;;5.22;1.95;;;21.70;78.30;;;;;;5074093;28;20026;-80
2023/07/18 08:48:46;;;;;;;3.85;1.73;;;21.70;78.10;;;;;;5074240;28;20113;-81
2023/07/18 08:51:12;;;;;;;4.03;1.83;;;21.60;78.20;;;;;;5075489;28;20033;-81
2023/07/18 08:53:39;;;;;;;3.58;1.63;;;21.70;78.30;;;;;;5074277;28;20027;-81
2023/07/18 08:56:05;;;;;;;3.53;1.70;;;21.80;78.20;;;;;;5073921;28;20393;-81
2023/07/18 08:58:31;;;;;;;3.55;1.90;;;21.70;78.10;;;;;;5075408;28;20448;-81
2023/07/18 09:00:57;;;;;;;3.72;1.75;;;21.80;78.00;;;;;;5075300;28;20044;-81
2023/07/18 09:03:23;;;;;;;4.20;1.85;;;21.80;77.90;;;;;;5073707;28;20521;-81
2023/07/18 09:05:49;;;;;;;3.78;2.28;;;21.80;77.80;;;;;;5073906;28;20022;-81
2023/07/18 09:08:15;;;;;;;3.30;1.83;;;21.90;77.80;;;;;;5073963;28;20029;-81
2023/07/18 09:10:40;;;;;;;2.88;1.60;;;21.90;77.80;;;;;;5074074;28;20511;-81
2023/07/18 09:13:07;;;;;;;3.67;1.70;;;21.90;77.70;;;;;;5073692;28;20060;-81
2023/07/18 09:15:37;;;;;;;4.22;1.80;;;22.00;77.80;;;;;;5073963;28;20025;-81
2023/07/18 09:18:08;;;;;;;3.65;1.80;;;22.00;77.80;;;;;;5074726;28;20047;-81
2023/07/18 09:20:34;;;;;;;2.83;1.63;;;22.00;77.80;;;;;;5073752;28;20112;-81
2023/07/18 09:23:05;;;;;;;3.13;1.75;;;21.90;77.80;;;;;;5073449;28;20066;-81
2023/07/18 09:25:36;;;;;;;3.60;1.73;;;21.90;77.90;;;;;;5073711;28;20396;-80
2023/07/18 09:28:02;;;;;;;3.63;1.65;;;21.90;78.00;;;;;;5074457;28;20013;-81
2023/07/18 09:30:32;;;;;;;4.00;1.80;;;21.90;78.10;;;;;;5073613;28;20066;-80
2023/07/18 09:32:58;;;;;;;2.97;1.45;;;21.90;78.30;;;;;;5073370;28;20025;-80
2023/07/18 09:35:27;;;;;;;4.20;1.55;;;21.80;78.30;;;;;;5074839;28;20420;-81
2023/07/18 09:37:53;;;;;;;4.63;1.98;;;21.80;78.40;;;;;;5072751;28;20117;-81
2023/07/18 09:40:18;;;;;;;3.50;1.70;;;21.80;78.40;;;;;;5072316;28;20066;-81
2023/07/18 09:42:46;;;;;;;2.60;1.45;;;21.80;78.40;;;;;;5073437;28;20024;-80
2023/07/18 09:45:16;;;;;;;3.95;1.98;;;21.80;78.40;;;;;;5073151;28;20029;-81
2023/07/18 09:47:42;;;;;;;3.50;1.88;;;21.80;78.50;;;;;;5073070;28;20101;-80
2023/07/18 09:50:12;;;;;;;2.53;1.45;;;21.90;78.60;;;;;;5073043;28;20040;-80
2023/07/18 09:52:51;;;;;;;4.13;1.80;;;21.80;78.60;;;;;;5074446;28;20570;-81
2023/07/18 09:55:24;;;;;;;4.13;1.90;;;21.80;78.30;;;;;;5073335;28;20029;-81
2023/07/18 09:57:51;;;;;;;3.33;1.65;;;21.80;78.30;;;;;;5072827;28;20602;-81
2023/07/18 10:00:18;;;;;;;2.38;1.45;;;21.80;78.40;;;;;;5074241;28;20070;-81
2023/07/18 10:02:44;;;;;;;2.78;1.60;;;21.90;78.40;;;;;;5072642;28;20039;-81
2023/07/18 10:05:10;;;;;;;3.33;1.50;;;21.80;78.40;;;;;;5074358;28;20071;-81
2023/07/18 10:07:40;;;;;;;2.78;1.60;;;21.90;78.40;;;;;;5072627;28;20016;-80
2023/07/18 10:10:10;;;;;;;3.13;1.58;;;21.90;78.50;;;;;;5072699;28;20024;-81
2023/07/18 10:13:01;;;;;;;3.28;1.77;;;21.90;78.40;;;;;;5072848;28;20032;-81
2023/07/18 10:15:27;;;;;;;3.28;1.60;;;21.90;78.60;;;;;;5073988;28;20477;-81
2023/07/18 10:17:53;;;;;;;3.10;1.55;;;21.90;78.60;;;;;;5072240;28;20039;-81
2023/07/18 10:20:21;;;;;;;3.17;1.52;;;21.90;78.50;;;;;;5073752;28;20384;-81
2023/07/18 10:22:57;;;;;;;3.53;1.77;;;21.90;78.60;;;;;;5072652;28;20016;-80
2023/07/18 10:25:23;;;;;;;3.83;1.73;;;21.90;79.10;;;;;;5072618;28;20392;-81
2023/07/18 10:27:49;;;;;;;3.15;1.50;;;21.90;78.40;;;;;;5072307;28;20081;-80
2023/07/18 10:30:19;;;;;;;2.88;1.50;;;21.90;78.30;;;;;;5073522;28;20025;-82
2023/07/18 10:32:57;;;;;;;3.88;1.60;;;22.00;78.20;;;;;;5073439;28;20024;-81
2023/07/18 10:35:27;;;;;;;3.42;1.67;;;22.10;78.10;;;;;;5072487;28;20070;-81
2023/07/18 10:38:03;;;;;;;2.75;1.42;;;22.10;78.50;;;;;;5072955;28;20032;-81
2023/07/18 10:40:43;;;;;;;2.55;1.45;;;22.10;77.90;;;;;;5073350;28;20560;-82
2023/07/18 10:43:16;;;;;;;2.47;1.50;;;22.10;77.90;;;;;;5071954;28;20112;-81
2023/07/18 10:45:42;;;;;;;2.83;1.45;;;22.20;77.80;;;;;;5073088;28;20027;-80
2023/07/18 10:48:19;;;;;;;3.83;1.77;;;22.20;77.80;;;;;;5071740;28;20027;-81
2023/07/18 10:50:47;;;;;;;3.00;1.50;;;22.10;77.70;;;;;;5071709;28;20116;-81
2023/07/18 10:53:20;;;;;;;3.22;1.35;;;22.20;77.70;;;;;;5071909;28;20047;-81
2023/07/18 10:55:47;;;;;;;3.05;1.70;;;22.20;77.70;;;;;;5073073;28;20048;-81
2023/07/18 10:58:20;;;;;;;2.65;1.50;;;22.10;77.80;;;;;;5071399;28;20384;-81
2023/07/18 11:00:47;;;;;;;2.85;1.55;;;22.10;78.00;;;;;;5072907;28;20097;-81
2023/07/18 11:03:23;;;;;;;2.72;1.65;;;22.10;78.20;;;;;;5071328;28;20029;-82
2023/07/18 11:05:50;;;;;;;2.22;1.30;;;22.00;78.30;;;;;;5071753;28;20017;-81
2023/07/18 11:08:26;;;;;;;2.58;1.50;;;22.00;78.40;;;;;;5071432;28;20029;-81
2023/07/18 11:11:01;;;;;;;2.88;1.35;;;22.00;78.40;;;;;;5072739;28;20044;-81
2023/07/18 11:13:35;;;;;;;3.70;1.50;;;22.00;78.30;;;;;;5071717;28;20028;-81
2023/07/18 11:16:15;;;;;;;3.10;1.40;;;22.00;78.30;;;;;;5071209;28;20027;-81
2023/07/18 11:18:46;;;;;;;3.50;1.35;;;22.00;78.80;;;;;;5071404;28;20523;-81
2023/07/18 11:21:13;;;;;;;3.60;1.43;;;22.00;78.40;;;;;;5071343;28;20028;-81
2023/07/18 11:23:40;;;;;;;2.40;1.50;;;21.90;78.50;;;;;;5072815;28;20036;-81
2023/07/18 11:26:23;;;;;;;3.40;1.50;;;21.90;78.40;;;;;;5071017;28;20412;-80
2023/07/18 11:28:51;;;;;;;2.80;1.50;;;21.90;78.60;;;;;;5072418;28;20036;-79
2023/07/18 11:31:30;;;;;;;2.90;1.55;;;21.90;78.60;;;;;;5072614;28;20095;-80
2023/07/18 11:34:00;;;;;;;2.97;1.50;;;21.90;78.50;;;;;;5072654;28;20040;-80
2023/07/18 11:36:37;;;;;;;3.53;1.60;;;21.90;78.50;;;;;;5071202;28;20031;-79
2023/07/18 11:39:15;;;;;;;2.80;1.40;;;21.90;78.70;;;;;;5106301;22;20115;-82
2023/07/18 11:41:40;;;;;;;3.22;1.50;;;21.90;78.70;;;;;;5031455;28;20045;-82
2023/07/18 11:44:08;;;;;;;2.53;1.30;;;21.90;78.70;;;;;;5032388;28;20114;-82
2023/07/18 11:46:38;;;;;;;2.53;1.50;;;21.90;78.70;;;;;;5030932;28;20122;-82
2023/07/18 11:49:05;;;;;;;2.60;1.50;;;21.90;78.70;;;;;;5030915;28;20037;-81
2023/07/18 11:51:32;;;;;;;2.83;1.55;;;21.90;78.80;;;;;;5031188;28;20041;-82
2023/07/18 11:53:59;;;;;;;3.35;1.50;;;21.90;78.80;;;;;;5032260;28;20075;-81
2023/07/18 11:56:25;;;;;;;2.00;1.30;;;21.90;78.90;;;;;;5032219;28;20113;-82
2023/07/18 11:58:50;;;;;;;2.58;1.30;;;21.90;78.80;;;;;;5031890;28;20100;-82
2023/07/18 12:01:15;;;;;;;2.58;1.30;;;21.90;78.80;;;;;;5034444;28;20022;-83
2023/07/18 12:03:41;;;;;;;2.45;1.30;;;21.90;78.70;;;;;;5038117;28;20084;-83
2023/07/18 12:06:06;;;;;;;3.05;1.40;;;21.90;78.70;;;;;;5036801;28;20022;-80
2023/07/18 12:08:32;;;;;;;2.00;1.15;;;21.90;78.70;;;;;;5036995;28;20017;-83
2023/07/18 12:10:58;;;;;;;2.47;1.20;;;21.90;78.70;;;;;;5036916;28;20029;-83
2023/07/18 12:13:23;;;;;;;2.97;1.35;;;21.90;78.70;;;;;;5038595;28;20203;-82
2023/07/18 12:15:49;;;;;;;2.60;1.45;;;21.90;78.70;;;;;;5036376;28;20033;-82
2023/07/18 12:18:14;;;;;;;2.65;1.50;;;21.90;78.70;;;;;;5037052;28;20037;-82
2023/07/18 12:20:40;;;;;;;2.55;1.33;;;22.00;78.70;;;;;;5036158;28;20029;-82
2023/07/18 12:23:05;;;;;;;1.88;1.00;;;22.00;79.20;;;;;;5037475;28;20031;-83
2023/07/18 12:25:34;;;;;;;1.90;1.15;;;21.90;78.70;;;;;;5037233;28;20056;-83
2023/07/18 12:28:00;;;;;;;2.53;1.30;;;21.90;78.80;;;;;;5036903;28;20493;-82
2023/07/18 12:30:26;;;;;;;2.33;1.33;;;21.90;78.90;;;;;;5037850;28;20025;-82
2023/07/18 12:32:52;;;;;;;2.33;1.30;;;21.90;79.00;;;;;;5036797;28;20036;-82
2023/07/18 12:35:18;;;;;;;2.40;1.20;;;21.80;79.00;;;;;;5036497;28;20473;-82
2023/07/18 12:37:44;;;;;;;2.45;1.35;;;21.80;79.10;;;;;;5035912;28;20026;-82
2023/07/18 12:40:10;;;;;;;2.10;1.17;;;21.80;79.10;;;;;;5036530;28;20462;-82
2023/07/18 12:42:35;;;;;;;1.90;1.20;;;21.80;79.20;;;;;;5037237;28;20117;-82
2023/07/18 12:45:01;;;;;;;1.73;1.23;;;21.80;79.20;;;;;;5035722;28;20601;-82
2023/07/18 12:47:27;;;;;;;2.17;1.30;;;21.80;79.20;;;;;;5035252;28;20068;-82